SVA21 OEJN-KJFK
Flight info
| Callsign | SVA21 |
|---|---|
| Flight time | 14h 52m |
| Altitude | 35000 |
| Route | MIGDA2W/34C MIGDA L677 CVO L617 TANSA UL613 KOR DCT DIMIS DCT VAKSU DCT ROTAR DCT RESIA DCT ELMUR L613 HOC DCT LUL DCT RLP DCT ROTSI DCT KOTUN DCT AMAXA DCT VESAN DCT RATUK DCT SOVAT L613 SANDY L722 ICTAM L179 SAWPE DCT OZZIL DCT ARPAK DCT FELCA DCT OFSOX DCT SLANY DCT MALOT/M082F350 DCT 53N020W 53N030W 53N040W 51N050W DCT ALLRY/N0470F350 N476B TOPPS DCT ENE PARCH4 |
| Aircraft | B77W/H-SDE1E2E3FGHIJ2J3J4J5M1RWXY/LB1D1 |
Departure
| Time | 2026-04-30 21:54 |
|---|---|
| Airport | King Abdulaziz International Airport (OEJN) |
Arrival
| Time | 2026-05-01 12:46 |
|---|---|
| Airport | John F. Kennedy International Airport (KJFK) |
| Time | Latitude | Longitude | Altitude | Speed | Heading |
|---|---|---|---|---|---|
| 2026-04-30 20:55 | 21.66529 | 39.17080 | 40 ft | 0 kts | 79° |
| 2026-04-30 21:46 | 21.66529 | 39.17078 | 40 ft | 1 kts | 79° |
| 2026-04-30 21:46 | 21.66526 | 39.17062 | 40 ft | 3 kts | 79° |
| 2026-04-30 21:46 | 21.66522 | 39.17041 | 40 ft | 3 kts | 79° |
| 2026-04-30 21:46 | 21.66519 | 39.17023 | 40 ft | 2 kts | 79° |
| 2026-04-30 21:47 | 21.66518 | 39.17005 | 40 ft | 3 kts | 112° |
| 2026-04-30 21:47 | 21.66528 | 39.16991 | 40 ft | 3 kts | 162° |
| 2026-04-30 21:47 | 21.66547 | 39.16986 | 40 ft | 2 kts | 167° |
| 2026-04-30 21:47 | 21.66552 | 39.16985 | 40 ft | 0 kts | 165° |
| 2026-04-30 21:50 | 21.66551 | 39.16985 | 40 ft | 2 kts | 165° |
| 2026-04-30 21:50 | 21.66496 | 39.17001 | 40 ft | 12 kts | 165° |
| 2026-04-30 21:50 | 21.66414 | 39.17018 | 40 ft | 12 kts | 175° |
| 2026-04-30 21:51 | 21.66334 | 39.17000 | 41 ft | 12 kts | 216° |
| 2026-04-30 21:51 | 21.66287 | 39.16927 | 41 ft | 12 kts | 248° |
| 2026-04-30 21:51 | 21.66256 | 39.16843 | 41 ft | 12 kts | 249° |
| 2026-04-30 21:51 | 21.66235 | 39.16780 | 41 ft | 0 kts | 250° |
| 2026-04-30 21:52 | 21.66228 | 39.16761 | 41 ft | 7 kts | 250° |
| 2026-04-30 21:52 | 21.66190 | 39.16647 | 40 ft | 21 kts | 250° |
| 2026-04-30 21:52 | 21.66165 | 39.16496 | 38 ft | 21 kts | 297° |
| 2026-04-30 21:53 | 21.66268 | 39.16428 | 38 ft | 0 kts | 340° |
| 2026-04-30 21:53 | 21.66280 | 39.16423 | 38 ft | 17 kts | 340° |
| 2026-04-30 21:53 | 21.66671 | 39.16271 | 41 ft | 102 kts | 340° |
| 2026-04-30 21:53 | 21.67604 | 39.15903 | 35 ft | 181 kts | 340° |
| 2026-04-30 21:54 | 21.68991 | 39.15349 | 211 ft | 229 kts | 340° |
| 2026-04-30 21:54 | 21.70443 | 39.14780 | 1375 ft | 219 kts | 340° |
| 2026-04-30 21:54 | 21.71913 | 39.14189 | 1801 ft | 236 kts | 340° |
| 2026-04-30 21:54 | 21.73527 | 39.13610 | 2126 ft | 249 kts | 342° |
| 2026-04-30 21:55 | 21.75102 | 39.13012 | 3037 ft | 234 kts | 338° |
| 2026-04-30 21:55 | 21.76713 | 39.12536 | 3274 ft | 251 kts | 358° |
| 2026-04-30 21:55 | 21.78509 | 39.12622 | 3609 ft | 262 kts | 3° |
| 2026-04-30 21:55 | 21.80350 | 39.12775 | 4150 ft | 269 kts | 3° |
| 2026-04-30 21:56 | 21.82170 | 39.12576 | 4589 ft | 271 kts | 334° |
| 2026-04-30 21:56 | 21.83623 | 39.11320 | 5088 ft | 270 kts | 306° |
| 2026-04-30 21:56 | 21.84937 | 39.09886 | 5554 ft | 274 kts | 330° |
| 2026-04-30 21:56 | 21.86667 | 39.09006 | 5979 ft | 276 kts | 332° |
| 2026-04-30 21:57 | 21.88368 | 39.08013 | 5984 ft | 280 kts | 327° |
| 2026-04-30 21:57 | 21.90034 | 39.06948 | 6002 ft | 279 kts | 331° |
| 2026-04-30 21:57 | 21.91791 | 39.06072 | 6004 ft | 277 kts | 335° |
| 2026-04-30 21:57 | 21.93553 | 39.05274 | 6004 ft | 278 kts | 335° |
| 2026-04-30 21:58 | 21.95333 | 39.04458 | 6011 ft | 278 kts | 335° |
| 2026-04-30 21:58 | 21.97109 | 39.03627 | 6007 ft | 279 kts | 334° |
| 2026-04-30 21:58 | 21.98890 | 39.02783 | 6005 ft | 279 kts | 334° |
| 2026-04-30 21:58 | 22.00657 | 39.01942 | 6006 ft | 279 kts | 334° |
| 2026-04-30 21:59 | 22.02431 | 39.01096 | 6336 ft | 279 kts | 334° |
| 2026-04-30 21:59 | 22.04211 | 39.00243 | 6976 ft | 281 kts | 334° |
| 2026-04-30 21:59 | 22.05957 | 38.99407 | 7506 ft | 285 kts | 334° |
| 2026-04-30 22:00 | 22.09612 | 38.97656 | 8644 ft | 292 kts | 334° |
| 2026-04-30 22:00 | 22.13381 | 38.95854 | 9710 ft | 299 kts | 334° |
| 2026-04-30 22:00 | 22.15296 | 38.94937 | 10029 ft | 303 kts | 334° |
| 2026-04-30 22:01 | 22.17239 | 38.94007 | 9981 ft | 304 kts | 334° |
| 2026-04-30 22:01 | 22.19150 | 38.93092 | 10119 ft | 299 kts | 334° |
| 2026-04-30 22:01 | 22.21081 | 38.92168 | 10241 ft | 315 kts | 334° |
| 2026-04-30 22:01 | 22.23135 | 38.91182 | 10393 ft | 333 kts | 334° |
| 2026-04-30 22:02 | 22.25320 | 38.90138 | 10544 ft | 352 kts | 334° |
| 2026-04-30 22:02 | 22.27611 | 38.89042 | 10697 ft | 370 kts | 334° |
| 2026-04-30 22:02 | 22.30014 | 38.87890 | 11004 ft | 383 kts | 334° |
| 2026-04-30 22:02 | 22.32476 | 38.86710 | 11496 ft | 391 kts | 334° |
| 2026-04-30 22:03 | 22.34132 | 38.85917 | 11872 ft | 394 kts | 334° |
| 2026-04-30 22:03 | 22.36648 | 38.84710 | 12547 ft | 397 kts | 334° |
| 2026-04-30 22:03 | 22.39183 | 38.83492 | 13252 ft | 398 kts | 334° |
| 2026-04-30 22:03 | 22.41737 | 38.82265 | 13920 ft | 401 kts | 333° |
| 2026-04-30 22:04 | 22.44290 | 38.81037 | 14557 ft | 404 kts | 333° |
| 2026-04-30 22:04 | 22.46869 | 38.79797 | 15174 ft | 407 kts | 333° |
| 2026-04-30 22:04 | 22.52061 | 38.77299 | 16382 ft | 413 kts | 333° |
| 2026-04-30 22:05 | 22.54698 | 38.76030 | 16942 ft | 416 kts | 333° |
| 2026-04-30 22:05 | 22.57359 | 38.74749 | 17538 ft | 419 kts | 333° |
| 2026-04-30 22:05 | 22.60032 | 38.73461 | 18124 ft | 421 kts | 333° |
| 2026-04-30 22:05 | 22.62686 | 38.72182 | 18698 ft | 423 kts | 333° |
| 2026-04-30 22:06 | 22.65394 | 38.70890 | 19301 ft | 425 kts | 333° |
| 2026-04-30 22:06 | 22.70899 | 38.68433 | 20442 ft | 429 kts | 334° |
| 2026-04-30 22:06 | 22.73676 | 38.67219 | 20995 ft | 431 kts | 334° |
| 2026-04-30 22:07 | 22.76463 | 38.65999 | 21547 ft | 432 kts | 334° |
| 2026-04-30 22:07 | 22.79252 | 38.64773 | 22081 ft | 433 kts | 334° |
| 2026-04-30 22:07 | 22.82055 | 38.63532 | 22560 ft | 435 kts | 334° |
| 2026-04-30 22:07 | 22.84832 | 38.62299 | 23040 ft | 437 kts | 334° |
| 2026-04-30 22:08 | 22.87654 | 38.61046 | 23506 ft | 439 kts | 334° |
| 2026-04-30 22:08 | 22.90493 | 38.59783 | 23939 ft | 440 kts | 333° |
| 2026-04-30 22:08 | 22.93333 | 38.58518 | 24386 ft | 442 kts | 333° |
| 2026-04-30 22:08 | 22.96197 | 38.57242 | 24777 ft | 445 kts | 333° |
| 2026-04-30 22:09 | 22.99077 | 38.55958 | 25090 ft | 449 kts | 333° |
| 2026-04-30 22:09 | 23.01943 | 38.54680 | 25425 ft | 452 kts | 333° |
| 2026-04-30 22:09 | 23.04866 | 38.53376 | 25778 ft | 455 kts | 333° |
| 2026-04-30 22:09 | 23.07799 | 38.52067 | 26110 ft | 457 kts | 333° |
| 2026-04-30 22:10 | 23.10718 | 38.50764 | 26445 ft | 460 kts | 333° |
| 2026-04-30 22:10 | 23.13542 | 38.49503 | 26768 ft | 462 kts | 332° |
| 2026-04-30 22:10 | 23.16530 | 38.48167 | 27088 ft | 464 kts | 332° |
| 2026-04-30 22:10 | 23.19488 | 38.46845 | 27401 ft | 467 kts | 332° |
| 2026-04-30 22:11 | 23.25535 | 38.44140 | 27992 ft | 471 kts | 332° |
| 2026-04-30 22:11 | 23.28579 | 38.42777 | 28304 ft | 473 kts | 332° |
| 2026-04-30 22:11 | 23.31628 | 38.41413 | 28597 ft | 475 kts | 332° |
| 2026-04-30 22:12 | 23.34696 | 38.40039 | 28855 ft | 477 kts | 332° |
| 2026-04-30 22:12 | 23.37776 | 38.38657 | 29123 ft | 478 kts | 332° |
| 2026-04-30 22:12 | 23.40824 | 38.37290 | 29487 ft | 477 kts | 332° |
| 2026-04-30 22:12 | 23.43877 | 38.35922 | 30019 ft | 473 kts | 332° |
| 2026-04-30 22:13 | 23.46917 | 38.34559 | 30391 ft | 472 kts | 332° |
| 2026-04-30 22:13 | 23.49962 | 38.33190 | 30687 ft | 473 kts | 331° |
| 2026-04-30 22:13 | 23.52976 | 38.31834 | 30952 ft | 474 kts | 331° |
| 2026-04-30 22:13 | 23.56025 | 38.30460 | 31203 ft | 475 kts | 331° |
| 2026-04-30 22:14 | 23.59093 | 38.29081 | 31499 ft | 475 kts | 330° |
| 2026-04-30 22:14 | 23.62143 | 38.27709 | 31806 ft | 475 kts | 330° |
| 2026-04-30 22:14 | 23.65221 | 38.26320 | 31811 ft | 478 kts | 330° |
| 2026-04-30 22:15 | 23.71322 | 38.23584 | 31834 ft | 474 kts | 330° |
| 2026-04-30 22:15 | 23.77416 | 38.20853 | 31829 ft | 470 kts | 330° |
| 2026-04-30 22:16 | 23.83459 | 38.18136 | 31836 ft | 468 kts | 330° |
| 2026-04-30 22:17 | 23.95492 | 38.12712 | 31828 ft | 470 kts | 330° |
| 2026-04-30 22:17 | 24.04557 | 38.08620 | 31829 ft | 473 kts | 330° |
| 2026-04-30 22:18 | 24.13672 | 38.04444 | 31829 ft | 471 kts | 327° |
| 2026-04-30 22:19 | 24.21827 | 37.98863 | 31831 ft | 462 kts | 319° |
| 2026-04-30 22:20 | 24.29708 | 37.92880 | 31834 ft | 462 kts | 319° |
| 2026-04-30 22:20 | 24.37680 | 37.86877 | 31825 ft | 461 kts | 319° |
| 2026-04-30 22:21 | 24.42944 | 37.82915 | 31834 ft | 460 kts | 319° |
| 2026-04-30 22:21 | 24.48238 | 37.78929 | 31852 ft | 459 kts | 319° |
| 2026-04-30 22:22 | 24.53473 | 37.74978 | 31854 ft | 458 kts | 319° |
| 2026-04-30 22:22 | 24.58743 | 37.71001 | 31854 ft | 457 kts | 319° |
| 2026-04-30 22:23 | 24.63953 | 37.67063 | 31858 ft | 457 kts | 319° |
| 2026-04-30 22:23 | 24.69205 | 37.63090 | 31851 ft | 456 kts | 319° |
| 2026-04-30 22:24 | 24.74417 | 37.59141 | 31852 ft | 456 kts | 319° |
| 2026-04-30 22:24 | 24.79661 | 37.55164 | 31856 ft | 456 kts | 319° |
| 2026-04-30 22:25 | 24.84856 | 37.51223 | 31868 ft | 456 kts | 319° |
| 2026-04-30 22:25 | 24.90091 | 37.47244 | 31866 ft | 456 kts | 319° |
| 2026-04-30 22:26 | 24.97907 | 37.41298 | 31874 ft | 455 kts | 319° |
| 2026-04-30 22:27 | 25.03123 | 37.37325 | 31884 ft | 454 kts | 319° |
| 2026-04-30 22:27 | 25.10905 | 37.31390 | 31893 ft | 453 kts | 319° |
| 2026-04-30 22:28 | 25.18668 | 37.25456 | 31897 ft | 453 kts | 319° |
| 2026-04-30 22:29 | 25.29007 | 37.17540 | 31904 ft | 452 kts | 319° |
| 2026-04-30 22:31 | 25.47068 | 37.03679 | 31905 ft | 452 kts | 319° |
| 2026-04-30 22:32 | 25.59884 | 36.93843 | 31915 ft | 450 kts | 319° |
| 2026-04-30 22:33 | 25.72726 | 36.83955 | 31913 ft | 450 kts | 319° |
| 2026-04-30 22:35 | 25.85531 | 36.74028 | 31915 ft | 448 kts | 319° |
| 2026-04-30 22:36 | 25.98291 | 36.64105 | 31916 ft | 448 kts | 319° |
| 2026-04-30 22:37 | 26.08460 | 36.56174 | 31918 ft | 447 kts | 319° |
| 2026-04-30 22:38 | 26.18475 | 36.48078 | 31911 ft | 441 kts | 313° |
| 2026-04-30 22:39 | 26.24892 | 36.40797 | 31913 ft | 437 kts | 309° |
| 2026-04-30 22:40 | 26.37547 | 36.26180 | 31925 ft | 438 kts | 309° |
| 2026-04-30 22:41 | 26.48139 | 36.13933 | 31923 ft | 439 kts | 309° |
| 2026-04-30 22:43 | 26.60786 | 35.99267 | 31918 ft | 438 kts | 309° |
| 2026-04-30 22:44 | 26.69220 | 35.89456 | 31920 ft | 438 kts | 309° |
| 2026-04-30 22:45 | 26.81873 | 35.74698 | 31913 ft | 438 kts | 309° |
| 2026-04-30 22:47 | 26.94507 | 35.59914 | 31928 ft | 438 kts | 309° |
| 2026-04-30 22:48 | 27.02924 | 35.50036 | 31928 ft | 438 kts | 309° |
| 2026-04-30 22:49 | 27.15510 | 35.35223 | 31932 ft | 438 kts | 309° |
| 2026-04-30 22:51 | 27.28106 | 35.20339 | 31923 ft | 438 kts | 309° |
| 2026-04-30 22:52 | 27.34388 | 35.12901 | 31925 ft | 437 kts | 309° |
| 2026-04-30 22:53 | 27.42061 | 35.03796 | 31924 ft | 437 kts | 309° |
| 2026-04-30 22:53 | 27.48264 | 34.96418 | 31925 ft | 437 kts | 309° |
| 2026-04-30 22:55 | 27.59156 | 34.84473 | 31924 ft | 438 kts | 312° |
| 2026-04-30 22:56 | 27.68028 | 34.75120 | 31919 ft | 437 kts | 312° |
| 2026-04-30 22:57 | 27.79070 | 34.63396 | 31916 ft | 435 kts | 312° |
| 2026-04-30 22:58 | 27.87868 | 34.54029 | 31915 ft | 434 kts | 312° |
| 2026-04-30 22:59 | 28.00891 | 34.39874 | 31907 ft | 430 kts | 306° |
| 2026-05-01 07:23 | 51.64499 | -47.28885 | 36279 ft | 484 kts | 248° |
| 2026-05-01 07:24 | 51.61073 | -47.44169 | 36276 ft | 484 kts | 248° |
| 2026-05-01 07:24 | 51.58778 | -47.54359 | 36276 ft | 485 kts | 248° |
| 2026-05-01 07:25 | 51.56463 | -47.64579 | 36278 ft | 485 kts | 248° |
| 2026-05-01 07:25 | 51.54158 | -47.74705 | 36276 ft | 485 kts | 248° |
| 2026-05-01 07:26 | 51.51827 | -47.84903 | 36277 ft | 485 kts | 248° |
| 2026-05-01 07:26 | 51.49492 | -47.95068 | 36281 ft | 485 kts | 248° |
| 2026-05-01 07:27 | 51.47184 | -48.05071 | 36288 ft | 485 kts | 248° |
| 2026-05-01 07:27 | 51.44837 | -48.15191 | 36284 ft | 485 kts | 248° |
| 2026-05-01 07:28 | 51.42477 | -48.25318 | 36287 ft | 485 kts | 248° |
| 2026-05-01 07:28 | 51.40119 | -48.35388 | 36288 ft | 485 kts | 248° |
| 2026-05-01 07:29 | 51.37739 | -48.45512 | 36284 ft | 484 kts | 248° |
| 2026-05-01 07:29 | 51.35351 | -48.55614 | 36285 ft | 484 kts | 248° |
| 2026-05-01 07:30 | 51.32976 | -48.65618 | 36285 ft | 483 kts | 248° |
| 2026-05-01 07:30 | 51.30582 | -48.75653 | 36284 ft | 483 kts | 248° |
| 2026-05-01 07:31 | 51.28172 | -48.85705 | 36288 ft | 483 kts | 248° |
| 2026-05-01 07:32 | 51.22184 | -49.10501 | 36288 ft | 482 kts | 248° |
| 2026-05-01 07:33 | 51.18533 | -49.25476 | 36285 ft | 482 kts | 247° |
| 2026-05-01 07:33 | 51.14889 | -49.40328 | 36285 ft | 481 kts | 247° |
| 2026-05-01 07:34 | 51.11203 | -49.55238 | 36289 ft | 481 kts | 247° |
| 2026-05-01 07:35 | 51.08745 | -49.65136 | 36284 ft | 481 kts | 247° |
| 2026-05-01 07:35 | 51.06276 | -49.75036 | 36283 ft | 481 kts | 247° |
| 2026-05-01 07:36 | 51.03816 | -49.84850 | 36293 ft | 481 kts | 247° |
| 2026-05-01 07:36 | 51.01330 | -49.94735 | 36296 ft | 481 kts | 247° |
| 2026-05-01 07:37 | 50.97699 | -50.09417 | 36294 ft | 482 kts | 248° |
| 2026-05-01 07:37 | 50.95343 | -50.19311 | 36300 ft | 481 kts | 248° |
| 2026-05-01 07:38 | 50.92952 | -50.29270 | 36292 ft | 481 kts | 248° |
| 2026-05-01 07:39 | 50.89365 | -50.44052 | 36294 ft | 481 kts | 248° |
| 2026-05-01 07:39 | 50.85742 | -50.58869 | 36295 ft | 480 kts | 248° |
| 2026-05-01 07:40 | 50.83313 | -50.68743 | 36294 ft | 480 kts | 248° |
| 2026-05-01 07:40 | 50.80894 | -50.78540 | 36296 ft | 480 kts | 248° |
| 2026-05-01 07:41 | 50.78447 | -50.88400 | 36296 ft | 480 kts | 248° |
| 2026-05-01 07:42 | 50.74817 | -51.02947 | 36294 ft | 480 kts | 248° |
| 2026-05-01 07:42 | 50.72359 | -51.12749 | 36291 ft | 479 kts | 248° |
| 2026-05-01 07:43 | 50.69909 | -51.22473 | 36295 ft | 479 kts | 247° |
| 2026-05-01 07:43 | 50.66197 | -51.37132 | 36285 ft | 479 kts | 247° |
| 2026-05-01 07:44 | 50.61231 | -51.56586 | 36286 ft | 478 kts | 247° |
| 2026-05-01 07:45 | 50.58752 | -51.66241 | 36284 ft | 478 kts | 247° |
| 2026-05-01 07:45 | 50.56240 | -51.75982 | 36285 ft | 479 kts | 247° |
| 2026-05-01 07:46 | 50.53719 | -51.85707 | 36288 ft | 479 kts | 247° |
| 2026-05-01 07:47 | 50.49959 | -52.00154 | 36286 ft | 479 kts | 247° |
| 2026-05-01 07:47 | 50.47612 | -52.09808 | 36285 ft | 480 kts | 249° |
| 2026-05-01 07:48 | 50.44223 | -52.24596 | 36301 ft | 479 kts | 249° |
| 2026-05-01 07:48 | 50.41944 | -52.34389 | 36299 ft | 479 kts | 249° |
| 2026-05-01 07:49 | 50.38853 | -52.47468 | 36300 ft | 479 kts | 249° |
| 2026-05-01 07:50 | 50.36520 | -52.57261 | 36306 ft | 479 kts | 249° |
| 2026-05-01 07:50 | 50.33027 | -52.71858 | 36301 ft | 478 kts | 248° |
| 2026-05-01 07:51 | 50.30681 | -52.81613 | 36310 ft | 477 kts | 248° |
| 2026-05-01 07:52 | 50.27174 | -52.96102 | 36301 ft | 476 kts | 248° |
| 2026-05-01 07:52 | 50.24859 | -53.05620 | 36300 ft | 475 kts | 248° |
| 2026-05-01 07:53 | 50.21336 | -53.20026 | 36309 ft | 474 kts | 248° |
| 2026-05-01 07:53 | 50.18970 | -53.29644 | 36301 ft | 473 kts | 248° |
| 2026-05-01 07:55 | 50.13046 | -53.53556 | 36307 ft | 473 kts | 247° |
| 2026-05-01 07:56 | 50.07072 | -53.77401 | 36308 ft | 473 kts | 247° |
| 2026-05-01 07:57 | 50.03469 | -53.91674 | 36304 ft | 473 kts | 247° |
| 2026-05-01 07:58 | 49.98684 | -54.10479 | 36304 ft | 474 kts | 247° |
| 2026-05-01 07:59 | 49.93797 | -54.29516 | 36316 ft | 473 kts | 246° |
| 2026-05-01 08:00 | 49.86439 | -54.57907 | 36307 ft | 473 kts | 246° |
| 2026-05-01 08:01 | 49.81493 | -54.76781 | 36314 ft | 472 kts | 246° |
| 2026-05-01 08:02 | 49.77776 | -54.90864 | 36307 ft | 472 kts | 246° |
| 2026-05-01 08:03 | 49.74087 | -55.04772 | 36301 ft | 471 kts | 246° |
| 2026-05-01 08:03 | 49.70325 | -55.18844 | 36312 ft | 470 kts | 246° |
| 2026-05-01 08:04 | 49.65314 | -55.37477 | 36301 ft | 470 kts | 246° |
| 2026-05-01 08:05 | 49.61542 | -55.51406 | 36301 ft | 470 kts | 245° |
| 2026-05-01 08:06 | 49.57749 | -55.65318 | 36322 ft | 470 kts | 245° |
| 2026-05-01 08:07 | 49.52664 | -55.83853 | 36295 ft | 470 kts | 245° |
| 2026-05-01 08:08 | 49.48833 | -55.97719 | 36295 ft | 470 kts | 245° |
| 2026-05-01 08:09 | 49.43740 | -56.16025 | 36295 ft | 470 kts | 245° |
| 2026-05-01 08:09 | 49.41160 | -56.25249 | 36282 ft | 469 kts | 245° |
| 2026-05-01 08:10 | 49.35994 | -56.43604 | 36284 ft | 468 kts | 244° |
| 2026-05-01 08:11 | 49.30811 | -56.61881 | 36289 ft | 467 kts | 244° |
| 2026-05-01 08:12 | 49.26922 | -56.75502 | 36277 ft | 466 kts | 244° |
| 2026-05-01 08:13 | 49.23006 | -56.89138 | 36274 ft | 465 kts | 244° |
| 2026-05-01 08:13 | 49.19140 | -57.02527 | 36275 ft | 465 kts | 243° |
| 2026-05-01 08:14 | 49.16514 | -57.11578 | 36278 ft | 464 kts | 243° |
| 2026-05-01 08:14 | 49.13903 | -57.20548 | 36275 ft | 464 kts | 243° |
| 2026-05-01 08:15 | 49.09955 | -57.34040 | 36274 ft | 464 kts | 243° |
| 2026-05-01 08:16 | 49.07316 | -57.43020 | 36277 ft | 463 kts | 243° |
| 2026-05-01 08:16 | 49.04686 | -57.51932 | 36277 ft | 463 kts | 243° |
| 2026-05-01 08:17 | 49.02032 | -57.60895 | 36274 ft | 463 kts | 243° |
| 2026-05-01 08:17 | 48.99378 | -57.69827 | 36279 ft | 463 kts | 243° |
| 2026-05-01 08:18 | 48.96734 | -57.78695 | 36273 ft | 462 kts | 243° |
| 2026-05-01 08:19 | 48.91385 | -57.96531 | 36267 ft | 462 kts | 243° |
| 2026-05-01 08:19 | 48.88766 | -58.05216 | 36269 ft | 462 kts | 242° |
| 2026-05-01 08:20 | 48.86082 | -58.14090 | 36270 ft | 461 kts | 243° |
| 2026-05-01 08:20 | 48.83395 | -58.22939 | 36260 ft | 461 kts | 242° |
| 2026-05-01 08:21 | 48.80722 | -58.31711 | 36250 ft | 460 kts | 242° |
| 2026-05-01 08:21 | 48.78021 | -58.40537 | 36262 ft | 459 kts | 242° |
| 2026-05-01 08:22 | 48.75335 | -58.49286 | 36248 ft | 459 kts | 242° |
| 2026-05-01 08:22 | 48.72629 | -58.58069 | 36244 ft | 459 kts | 242° |
| 2026-05-01 08:23 | 48.69940 | -58.66767 | 36244 ft | 459 kts | 242° |
| 2026-05-01 08:23 | 48.67226 | -58.75516 | 36241 ft | 459 kts | 242° |
| 2026-05-01 08:24 | 48.64504 | -58.84260 | 36238 ft | 458 kts | 242° |
| 2026-05-01 08:24 | 48.61798 | -58.92925 | 36240 ft | 457 kts | 242° |
| 2026-05-01 08:25 | 48.59112 | -59.01494 | 36230 ft | 457 kts | 242° |
| 2026-05-01 08:25 | 48.56396 | -59.10127 | 36230 ft | 457 kts | 242° |
| 2026-05-01 08:26 | 48.53657 | -59.18798 | 36229 ft | 458 kts | 242° |
| 2026-05-01 08:26 | 48.50908 | -59.27481 | 36220 ft | 458 kts | 242° |
| 2026-05-01 08:27 | 48.48158 | -59.36136 | 36223 ft | 457 kts | 242° |
| 2026-05-01 08:27 | 48.45400 | -59.44784 | 36214 ft | 457 kts | 242° |
| 2026-05-01 08:28 | 48.42655 | -59.53362 | 36210 ft | 456 kts | 242° |
| 2026-05-01 08:28 | 48.39890 | -59.61973 | 36212 ft | 455 kts | 242° |
| 2026-05-01 08:29 | 48.37123 | -59.70564 | 36207 ft | 455 kts | 242° |
| 2026-05-01 08:29 | 48.34372 | -59.79071 | 36202 ft | 455 kts | 242° |
| 2026-05-01 08:30 | 48.31591 | -59.87642 | 36204 ft | 454 kts | 242° |
| 2026-05-01 08:30 | 48.28834 | -59.96112 | 36199 ft | 454 kts | 242° |
| 2026-05-01 08:31 | 48.26100 | -60.04484 | 36190 ft | 453 kts | 242° |
| 2026-05-01 08:31 | 48.23309 | -60.13003 | 36164 ft | 454 kts | 242° |
| 2026-05-01 08:32 | 48.20518 | -60.21493 | 36162 ft | 454 kts | 242° |
| 2026-05-01 08:32 | 48.17723 | -60.29971 | 36150 ft | 454 kts | 242° |
| 2026-05-01 08:33 | 48.14929 | -60.38409 | 36147 ft | 454 kts | 242° |
| 2026-05-01 08:33 | 48.12120 | -60.46867 | 36146 ft | 454 kts | 242° |
| 2026-05-01 08:34 | 48.09301 | -60.55329 | 36138 ft | 454 kts | 242° |
| 2026-05-01 08:34 | 48.06495 | -60.63727 | 36127 ft | 454 kts | 242° |
| 2026-05-01 08:35 | 48.03665 | -60.72167 | 36145 ft | 454 kts | 242° |
| 2026-05-01 08:35 | 48.00821 | -60.80623 | 36125 ft | 454 kts | 241° |
| 2026-05-01 08:36 | 47.97980 | -60.89040 | 36131 ft | 455 kts | 241° |
| 2026-05-01 08:36 | 47.95120 | -60.97487 | 36134 ft | 456 kts | 241° |
| 2026-05-01 08:37 | 47.92313 | -61.05744 | 36132 ft | 456 kts | 241° |
| 2026-05-01 08:37 | 47.89435 | -61.14188 | 36125 ft | 456 kts | 241° |
| 2026-05-01 08:38 | 47.86549 | -61.22631 | 36124 ft | 457 kts | 241° |
| 2026-05-01 08:38 | 47.83655 | -61.31065 | 36117 ft | 458 kts | 241° |
| 2026-05-01 08:39 | 47.80763 | -61.39470 | 36107 ft | 458 kts | 240° |
| 2026-05-01 08:39 | 47.77845 | -61.47919 | 36055 ft | 459 kts | 240° |
| 2026-05-01 08:40 | 47.73942 | -61.59180 | 36053 ft | 459 kts | 240° |
| 2026-05-01 08:40 | 47.71024 | -61.67569 | 36033 ft | 459 kts | 240° |
| 2026-05-01 08:41 | 47.68084 | -61.75992 | 36036 ft | 458 kts | 240° |
| 2026-05-01 08:41 | 47.65163 | -61.84335 | 36028 ft | 458 kts | 240° |
| 2026-05-01 08:42 | 47.62217 | -61.92719 | 36011 ft | 458 kts | 240° |
| 2026-05-01 08:42 | 47.59317 | -62.00951 | 36001 ft | 457 kts | 240° |
| 2026-05-01 08:43 | 47.56376 | -62.09273 | 35999 ft | 457 kts | 240° |
| 2026-05-01 08:43 | 47.53405 | -62.17643 | 35985 ft | 458 kts | 240° |
| 2026-05-01 08:44 | 47.50457 | -62.25934 | 35989 ft | 457 kts | 240° |
| 2026-05-01 08:44 | 47.47476 | -62.34293 | 35995 ft | 457 kts | 240° |
| 2026-05-01 08:45 | 47.44519 | -62.42553 | 35984 ft | 457 kts | 240° |
| 2026-05-01 08:45 | 47.41532 | -62.50864 | 35981 ft | 456 kts | 240° |
| 2026-05-01 08:46 | 47.38567 | -62.59094 | 35981 ft | 456 kts | 240° |
| 2026-05-01 08:46 | 47.35591 | -62.67332 | 35983 ft | 456 kts | 239° |
| 2026-05-01 08:47 | 47.32593 | -62.75602 | 35978 ft | 456 kts | 239° |
| 2026-05-01 08:47 | 47.29612 | -62.83803 | 35972 ft | 455 kts | 239° |
| 2026-05-01 08:48 | 47.26618 | -62.92014 | 35973 ft | 455 kts | 239° |
| 2026-05-01 08:48 | 47.23637 | -63.00153 | 35971 ft | 454 kts | 239° |
| 2026-05-01 08:49 | 47.20652 | -63.08285 | 35966 ft | 454 kts | 239° |
| 2026-05-01 08:49 | 47.17662 | -63.16410 | 35962 ft | 454 kts | 239° |
| 2026-05-01 08:50 | 47.14646 | -63.24582 | 35932 ft | 454 kts | 239° |
| 2026-05-01 08:50 | 47.11621 | -63.32747 | 35924 ft | 454 kts | 239° |
| 2026-05-01 08:51 | 47.08613 | -63.40849 | 35927 ft | 454 kts | 239° |
| 2026-05-01 08:51 | 47.05579 | -63.48988 | 35924 ft | 453 kts | 239° |
| 2026-05-01 08:52 | 47.02558 | -63.57069 | 35915 ft | 453 kts | 239° |
| 2026-05-01 08:52 | 46.99537 | -63.65131 | 35918 ft | 453 kts | 239° |
| 2026-05-01 08:53 | 46.96492 | -63.73226 | 35915 ft | 453 kts | 239° |
| 2026-05-01 08:53 | 46.93454 | -63.81281 | 35902 ft | 453 kts | 239° |
| 2026-05-01 08:54 | 46.90397 | -63.89368 | 35898 ft | 453 kts | 239° |
| 2026-05-01 08:54 | 46.87352 | -63.97385 | 35893 ft | 453 kts | 239° |
| 2026-05-01 08:55 | 46.84329 | -64.05330 | 35885 ft | 453 kts | 239° |
| 2026-05-01 08:55 | 46.81269 | -64.13350 | 35874 ft | 453 kts | 239° |
| 2026-05-01 08:56 | 46.78193 | -64.21387 | 35873 ft | 452 kts | 239° |
| 2026-05-01 08:56 | 46.75129 | -64.29365 | 35861 ft | 452 kts | 239° |
| 2026-05-01 08:57 | 46.72049 | -64.37367 | 35859 ft | 451 kts | 239° |
| 2026-05-01 08:57 | 46.68982 | -64.45308 | 35853 ft | 451 kts | 238° |
| 2026-05-01 08:58 | 46.65898 | -64.53269 | 35848 ft | 450 kts | 238° |
| 2026-05-01 08:58 | 46.62827 | -64.61172 | 35843 ft | 450 kts | 238° |
| 2026-05-01 08:59 | 46.59735 | -64.69112 | 35842 ft | 450 kts | 238° |
| 2026-05-01 08:59 | 46.56634 | -64.77048 | 35834 ft | 450 kts | 238° |
| 2026-05-01 09:00 | 46.53535 | -64.84958 | 35820 ft | 450 kts | 238° |
| 2026-05-01 09:00 | 46.50447 | -64.92808 | 35814 ft | 449 kts | 238° |
| 2026-05-01 09:01 | 46.47402 | -65.00535 | 35816 ft | 449 kts | 238° |
| 2026-05-01 09:01 | 46.44289 | -65.08413 | 35817 ft | 448 kts | 238° |
| 2026-05-01 09:02 | 46.41195 | -65.16214 | 35811 ft | 448 kts | 238° |
| 2026-05-01 09:02 | 46.38083 | -65.24044 | 35816 ft | 448 kts | 238° |
| 2026-05-01 09:03 | 46.34961 | -65.31874 | 35814 ft | 448 kts | 238° |
| 2026-05-01 09:03 | 46.31859 | -65.39635 | 35813 ft | 447 kts | 237° |
| 2026-05-01 09:04 | 46.28732 | -65.47440 | 35814 ft | 447 kts | 237° |
| 2026-05-01 09:04 | 46.25607 | -65.55208 | 35814 ft | 446 kts | 237° |
| 2026-05-01 09:05 | 46.22502 | -65.62904 | 35815 ft | 446 kts | 237° |
| 2026-05-01 09:05 | 46.19363 | -65.70669 | 35810 ft | 446 kts | 237° |
| 2026-05-01 09:06 | 46.16247 | -65.78358 | 35796 ft | 445 kts | 237° |
| 2026-05-01 09:06 | 46.13106 | -65.86083 | 35768 ft | 445 kts | 237° |
| 2026-05-01 09:07 | 46.09962 | -65.93791 | 35762 ft | 445 kts | 237° |
| 2026-05-01 09:07 | 46.06872 | -66.01349 | 35756 ft | 445 kts | 237° |
| 2026-05-01 09:08 | 46.03734 | -66.09004 | 35757 ft | 445 kts | 237° |
| 2026-05-01 09:08 | 46.00585 | -66.16667 | 35752 ft | 444 kts | 236° |
| 2026-05-01 09:09 | 45.97464 | -66.24240 | 35748 ft | 442 kts | 236° |
| 2026-05-01 09:09 | 45.94325 | -66.31828 | 35751 ft | 441 kts | 236° |
| 2026-05-01 09:10 | 45.91186 | -66.39403 | 35747 ft | 440 kts | 235° |
| 2026-05-01 09:10 | 45.88062 | -66.46919 | 35746 ft | 439 kts | 235° |
| 2026-05-01 09:11 | 45.84941 | -66.54408 | 35750 ft | 439 kts | 235° |
| 2026-05-01 09:11 | 45.81795 | -66.61932 | 35750 ft | 439 kts | 235° |
| 2026-05-01 09:12 | 45.78653 | -66.69432 | 35750 ft | 440 kts | 235° |
| 2026-05-01 09:12 | 45.75506 | -66.76920 | 35753 ft | 440 kts | 234° |
| 2026-05-01 09:13 | 45.72338 | -66.84447 | 35749 ft | 441 kts | 234° |
| 2026-05-01 09:13 | 45.69151 | -66.91988 | 35753 ft | 442 kts | 234° |
| 2026-05-01 09:14 | 45.65973 | -66.99487 | 35748 ft | 443 kts | 234° |
| 2026-05-01 09:14 | 45.62844 | -67.06858 | 35749 ft | 443 kts | 234° |
| 2026-05-01 09:15 | 45.59626 | -67.14418 | 35750 ft | 444 kts | 234° |
| 2026-05-01 09:15 | 45.56419 | -67.21929 | 35747 ft | 445 kts | 234° |
| 2026-05-01 09:16 | 45.53186 | -67.29480 | 35740 ft | 445 kts | 234° |
| 2026-05-01 09:17 | 45.48348 | -67.40747 | 35741 ft | 444 kts | 233° |
| 2026-05-01 09:17 | 45.43506 | -67.51978 | 35739 ft | 445 kts | 233° |
| 2026-05-01 09:18 | 45.38624 | -67.63257 | 35739 ft | 445 kts | 233° |
| 2026-05-01 09:19 | 45.33644 | -67.74355 | 35742 ft | 442 kts | 228° |
| 2026-05-01 09:20 | 45.27586 | -67.84093 | 35743 ft | 439 kts | 223° |
| 2026-05-01 09:21 | 45.19395 | -67.96892 | 35750 ft | 438 kts | 223° |
| 2026-05-01 09:21 | 45.13311 | -68.06422 | 35751 ft | 439 kts | 224° |
| 2026-05-01 09:22 | 45.05074 | -68.19280 | 35750 ft | 441 kts | 224° |
| 2026-05-01 09:23 | 44.98909 | -68.28860 | 35755 ft | 441 kts | 224° |
| 2026-05-01 09:24 | 44.92711 | -68.38460 | 35761 ft | 440 kts | 224° |
| 2026-05-01 09:25 | 44.84467 | -68.51179 | 35771 ft | 439 kts | 224° |
| 2026-05-01 09:26 | 44.78268 | -68.60701 | 35773 ft | 439 kts | 224° |
| 2026-05-01 09:26 | 44.72092 | -68.70159 | 35768 ft | 439 kts | 224° |
| 2026-05-01 09:27 | 44.65877 | -68.79640 | 35767 ft | 439 kts | 224° |
| 2026-05-01 09:28 | 44.62433 | -68.84881 | 35766 ft | 439 kts | 224° |
| 2026-05-01 09:28 | 44.58286 | -68.91179 | 35766 ft | 439 kts | 224° |
| 2026-05-01 09:29 | 44.52138 | -69.00492 | 35767 ft | 440 kts | 224° |
| 2026-05-01 09:30 | 44.45877 | -69.09941 | 35768 ft | 441 kts | 224° |
| 2026-05-01 09:30 | 44.39636 | -69.19330 | 35778 ft | 440 kts | 224° |
| 2026-05-01 09:31 | 44.35447 | -69.25616 | 35782 ft | 441 kts | 224° |
| 2026-05-01 09:32 | 44.29158 | -69.35022 | 35790 ft | 441 kts | 224° |
| 2026-05-01 09:32 | 44.22871 | -69.44395 | 35793 ft | 442 kts | 224° |
| 2026-05-01 09:33 | 44.18687 | -69.50616 | 35798 ft | 442 kts | 224° |
| 2026-05-01 09:34 | 44.12356 | -69.60003 | 35807 ft | 442 kts | 224° |
| 2026-05-01 09:34 | 44.06039 | -69.69336 | 35806 ft | 443 kts | 224° |
| 2026-05-01 09:35 | 43.99697 | -69.78675 | 35817 ft | 443 kts | 224° |
| 2026-05-01 09:36 | 43.95459 | -69.84902 | 35811 ft | 443 kts | 224° |
| 2026-05-01 09:36 | 43.91245 | -69.91076 | 35824 ft | 442 kts | 224° |
| 2026-05-01 09:37 | 43.87012 | -69.97263 | 35834 ft | 442 kts | 224° |
| 2026-05-01 09:37 | 43.80708 | -70.06456 | 35833 ft | 443 kts | 224° |
| 2026-05-01 09:38 | 43.74358 | -70.15685 | 35825 ft | 443 kts | 224° |
| 2026-05-01 09:39 | 43.67983 | -70.24918 | 35824 ft | 443 kts | 224° |
| 2026-05-01 09:39 | 43.63719 | -70.31079 | 35825 ft | 442 kts | 224° |
| 2026-05-01 09:40 | 43.57347 | -70.40260 | 35823 ft | 442 kts | 224° |
| 2026-05-01 09:41 | 43.53086 | -70.46382 | 35826 ft | 442 kts | 224° |
| 2026-05-01 09:41 | 43.46689 | -70.55554 | 35824 ft | 441 kts | 224° |
| 2026-05-01 09:42 | 43.42445 | -70.61618 | 35835 ft | 441 kts | 224° |
| 2026-05-01 09:43 | 43.33935 | -70.73751 | 35836 ft | 441 kts | 224° |
| 2026-05-01 09:43 | 43.29664 | -70.79834 | 35832 ft | 442 kts | 224° |
| 2026-05-01 09:44 | 43.23267 | -70.88933 | 35833 ft | 443 kts | 225° |
| 2026-05-01 09:45 | 43.18982 | -70.95023 | 35834 ft | 443 kts | 225° |
| 2026-05-01 09:45 | 43.12662 | -71.04004 | 35838 ft | 442 kts | 225° |
| 2026-05-01 09:46 | 43.08389 | -71.10073 | 35846 ft | 442 kts | 225° |
| 2026-05-01 09:46 | 43.04118 | -71.16134 | 35838 ft | 442 kts | 225° |
| 2026-05-01 09:47 | 42.99881 | -71.22141 | 35855 ft | 441 kts | 225° |
| 2026-05-01 09:47 | 42.95619 | -71.28180 | 35858 ft | 441 kts | 225° |
| 2026-05-01 09:48 | 42.91359 | -71.34211 | 35864 ft | 441 kts | 225° |
| 2026-05-01 09:48 | 42.87112 | -71.40220 | 35869 ft | 441 kts | 225° |
| 2026-05-01 09:49 | 42.82846 | -71.46252 | 35864 ft | 441 kts | 225° |
| 2026-05-01 09:49 | 42.78597 | -71.52252 | 35882 ft | 441 kts | 225° |
| 2026-05-01 09:50 | 42.74329 | -71.58280 | 35886 ft | 441 kts | 225° |
| 2026-05-01 09:50 | 42.70058 | -71.64308 | 35879 ft | 442 kts | 225° |
| 2026-05-01 09:51 | 42.65798 | -71.70316 | 35888 ft | 441 kts | 226° |
| 2026-05-01 09:51 | 42.61534 | -71.76322 | 35885 ft | 441 kts | 226° |
| 2026-05-01 09:52 | 42.57300 | -71.82284 | 35887 ft | 441 kts | 226° |
| 2026-05-01 09:52 | 42.53028 | -71.88294 | 35889 ft | 441 kts | 226° |
| 2026-05-01 09:53 | 42.48764 | -71.94287 | 35887 ft | 441 kts | 226° |
| 2026-05-01 09:53 | 42.44564 | -72.00187 | 35884 ft | 441 kts | 226° |
| 2026-05-01 09:54 | 42.41823 | -72.04033 | 35883 ft | 441 kts | 226° |
| 2026-05-01 12:15 | 42.39602 | -72.07147 | 35911 ft | 440 kts | 227° |
| 2026-05-01 12:15 | 42.35039 | -72.12519 | 35815 ft | 440 kts | 211° |
| 2026-05-01 12:16 | 42.32264 | -72.14337 | 35648 ft | 443 kts | 206° |
| 2026-05-01 12:16 | 42.29370 | -72.15769 | 35423 ft | 444 kts | 198° |
| 2026-05-01 12:16 | 42.26321 | -72.16467 | 35262 ft | 443 kts | 188° |
| 2026-05-01 12:16 | 42.23242 | -72.16582 | 35309 ft | 446 kts | 182° |
| 2026-05-01 12:17 | 42.16986 | -72.15350 | 35306 ft | 460 kts | 173° |
| 2026-05-01 12:17 | 42.10734 | -72.13581 | 35312 ft | 462 kts | 173° |
| 2026-05-01 12:18 | 42.04414 | -72.11819 | 35304 ft | 461 kts | 173° |
| 2026-05-01 12:18 | 41.98178 | -72.10135 | 35310 ft | 461 kts | 173° |
| 2026-05-01 12:19 | 41.91882 | -72.08458 | 35161 ft | 460 kts | 173° |
| 2026-05-01 12:19 | 41.88733 | -72.07623 | 34869 ft | 458 kts | 174° |
| 2026-05-01 12:19 | 41.85624 | -72.06799 | 34595 ft | 453 kts | 174° |
| 2026-05-01 12:20 | 41.82582 | -72.05991 | 34367 ft | 446 kts | 174° |
| 2026-05-01 12:20 | 41.79546 | -72.05184 | 34165 ft | 442 kts | 174° |
| 2026-05-01 12:20 | 41.76535 | -72.04386 | 33969 ft | 439 kts | 174° |
| 2026-05-01 12:20 | 41.73545 | -72.03595 | 33752 ft | 436 kts | 174° |
| 2026-05-01 12:21 | 41.70602 | -72.02819 | 33559 ft | 434 kts | 174° |
| 2026-05-01 12:21 | 41.67646 | -72.02039 | 33359 ft | 432 kts | 174° |
| 2026-05-01 12:21 | 41.64699 | -72.01262 | 33173 ft | 431 kts | 174° |
| 2026-05-01 12:21 | 41.61745 | -72.00484 | 32958 ft | 430 kts | 174° |
| 2026-05-01 12:22 | 41.58802 | -71.99710 | 32757 ft | 430 kts | 174° |
| 2026-05-01 12:22 | 41.55904 | -71.98948 | 32563 ft | 429 kts | 174° |
| 2026-05-01 12:22 | 41.52962 | -71.98175 | 32372 ft | 428 kts | 174° |
| 2026-05-01 12:22 | 41.50039 | -71.97408 | 32170 ft | 427 kts | 174° |
| 2026-05-01 12:23 | 41.47147 | -71.96649 | 31973 ft | 427 kts | 174° |
| 2026-05-01 12:23 | 41.44235 | -71.95884 | 31777 ft | 427 kts | 174° |
| 2026-05-01 12:23 | 41.41315 | -71.95118 | 31582 ft | 426 kts | 174° |
| 2026-05-01 12:23 | 41.38395 | -71.94354 | 31378 ft | 426 kts | 174° |
| 2026-05-01 12:24 | 41.35518 | -71.93602 | 31185 ft | 425 kts | 174° |
| 2026-05-01 12:24 | 41.32614 | -71.92859 | 31029 ft | 417 kts | 177° |
| 2026-05-01 12:24 | 41.29769 | -71.92871 | 30955 ft | 403 kts | 195° |
| 2026-05-01 12:24 | 41.27128 | -71.93902 | 30941 ft | 399 kts | 206° |
| 2026-05-01 12:25 | 41.24707 | -71.95691 | 30767 ft | 396 kts | 220° |
| 2026-05-01 12:25 | 41.20500 | -72.00401 | 30438 ft | 392 kts | 223° |
| 2026-05-01 12:25 | 41.18448 | -72.02719 | 30252 ft | 390 kts | 223° |
| 2026-05-01 12:26 | 41.16361 | -72.05036 | 30084 ft | 389 kts | 223° |
| 2026-05-01 12:26 | 41.12278 | -72.09656 | 29565 ft | 386 kts | 229° |
| 2026-05-01 12:26 | 41.10613 | -72.12442 | 29262 ft | 384 kts | 237° |
| 2026-05-01 12:27 | 41.09235 | -72.15460 | 28939 ft | 380 kts | 243° |
| 2026-05-01 12:27 | 41.07398 | -72.21916 | 28285 ft | 370 kts | 252° |
| 2026-05-01 12:28 | 41.05852 | -72.28348 | 27360 ft | 367 kts | 252° |
| 2026-05-01 12:28 | 41.05085 | -72.31512 | 26703 ft | 353 kts | 252° |
| 2026-05-01 12:28 | 41.03610 | -72.37500 | 25421 ft | 329 kts | 252° |
| 2026-05-01 12:29 | 41.02904 | -72.40342 | 24788 ft | 320 kts | 252° |
| 2026-05-01 12:29 | 41.02217 | -72.43097 | 24151 ft | 311 kts | 252° |
| 2026-05-01 12:29 | 41.00897 | -72.48374 | 22884 ft | 296 kts | 252° |
| 2026-05-01 12:30 | 40.99601 | -72.53555 | 21677 ft | 301 kts | 252° |
| 2026-05-01 12:30 | 40.98935 | -72.56211 | 21061 ft | 306 kts | 252° |
| 2026-05-01 12:30 | 40.98266 | -72.58875 | 20459 ft | 311 kts | 252° |
| 2026-05-01 12:31 | 40.97576 | -72.61615 | 19846 ft | 315 kts | 252° |
| 2026-05-01 12:31 | 40.96878 | -72.64390 | 19227 ft | 319 kts | 252° |
| 2026-05-01 12:31 | 40.96172 | -72.67191 | 18606 ft | 322 kts | 252° |
| 2026-05-01 12:31 | 40.95468 | -72.69980 | 17989 ft | 323 kts | 252° |
| 2026-05-01 12:32 | 40.94755 | -72.72802 | 17380 ft | 325 kts | 252° |
| 2026-05-01 12:32 | 40.93128 | -72.78395 | 16113 ft | 328 kts | 240° |
| 2026-05-01 12:32 | 40.91728 | -72.80819 | 15504 ft | 332 kts | 229° |
| 2026-05-01 12:33 | 40.90000 | -72.82834 | 14884 ft | 337 kts | 220° |
| 2026-05-01 12:33 | 40.88140 | -72.84608 | 14243 ft | 319 kts | 219° |
| 2026-05-01 12:33 | 40.86372 | -72.86265 | 13600 ft | 301 kts | 219° |
| 2026-05-01 12:33 | 40.84706 | -72.87831 | 13010 ft | 285 kts | 220° |
| 2026-05-01 12:34 | 40.83163 | -72.89290 | 12545 ft | 269 kts | 220° |
| 2026-05-01 12:34 | 40.81694 | -72.90686 | 12042 ft | 257 kts | 220° |
| 2026-05-01 12:34 | 40.80264 | -72.92055 | 11558 ft | 251 kts | 220° |
| 2026-05-01 12:34 | 40.78822 | -72.93440 | 11130 ft | 261 kts | 220° |
| 2026-05-01 12:35 | 40.77329 | -72.94875 | 10619 ft | 269 kts | 220° |
| 2026-05-01 12:35 | 40.75791 | -72.96347 | 10123 ft | 275 kts | 219° |
| 2026-05-01 12:35 | 40.74231 | -72.97836 | 9683 ft | 278 kts | 219° |
| 2026-05-01 12:35 | 40.72687 | -72.99310 | 9431 ft | 274 kts | 219° |
| 2026-05-01 12:36 | 40.71215 | -73.00710 | 9234 ft | 268 kts | 219° |
| 2026-05-01 12:36 | 40.69717 | -73.02138 | 8973 ft | 264 kts | 220° |
| 2026-05-01 12:36 | 40.68496 | -73.03875 | 8429 ft | 260 kts | 245° |
| 2026-05-01 12:36 | 40.67906 | -73.06096 | 8059 ft | 255 kts | 256° |
| 2026-05-01 12:37 | 40.67425 | -73.08350 | 7750 ft | 254 kts | 256° |
| 2026-05-01 12:37 | 40.66948 | -73.10586 | 7464 ft | 253 kts | 256° |
| 2026-05-01 12:37 | 40.66478 | -73.12786 | 7174 ft | 251 kts | 257° |
| 2026-05-01 12:37 | 40.66003 | -73.14999 | 6886 ft | 250 kts | 257° |
| 2026-05-01 12:38 | 40.65531 | -73.17195 | 6595 ft | 248 kts | 257° |
| 2026-05-01 12:38 | 40.65057 | -73.19391 | 6282 ft | 248 kts | 257° |
| 2026-05-01 12:38 | 40.64585 | -73.21572 | 5986 ft | 247 kts | 257° |
| 2026-05-01 12:38 | 40.64119 | -73.23716 | 5687 ft | 246 kts | 257° |
| 2026-05-01 12:39 | 40.63648 | -73.25884 | 5375 ft | 245 kts | 257° |
| 2026-05-01 12:39 | 40.63176 | -73.28046 | 5071 ft | 245 kts | 257° |
| 2026-05-01 12:39 | 40.62710 | -73.30201 | 4790 ft | 245 kts | 257° |
| 2026-05-01 12:39 | 40.62245 | -73.32342 | 4521 ft | 243 kts | 257° |
| 2026-05-01 12:40 | 40.61779 | -73.34488 | 4191 ft | 243 kts | 257° |
| 2026-05-01 12:40 | 40.61320 | -73.36582 | 4077 ft | 235 kts | 257° |
| 2026-05-01 12:40 | 40.60867 | -73.38650 | 4073 ft | 238 kts | 257° |
| 2026-05-01 12:40 | 40.60404 | -73.40779 | 4091 ft | 244 kts | 257° |
| 2026-05-01 12:41 | 40.60090 | -73.42212 | 4093 ft | 246 kts | 257° |
| 2026-05-01 12:41 | 40.59462 | -73.45072 | 4089 ft | 244 kts | 257° |
| 2026-05-01 12:41 | 40.59144 | -73.46522 | 4072 ft | 244 kts | 257° |
| 2026-05-01 12:41 | 40.58670 | -73.48690 | 3748 ft | 252 kts | 257° |
| 2026-05-01 12:42 | 40.58035 | -73.51578 | 3561 ft | 242 kts | 257° |
| 2026-05-01 12:42 | 40.57721 | -73.53001 | 3480 ft | 237 kts | 257° |
| 2026-05-01 12:42 | 40.57273 | -73.55022 | 3382 ft | 228 kts | 257° |
| 2026-05-01 12:42 | 40.56849 | -73.57004 | 3172 ft | 219 kts | 263° |
| 2026-05-01 12:43 | 40.56958 | -73.58881 | 3000 ft | 201 kts | 294° |
| 2026-05-01 12:43 | 40.57533 | -73.60543 | 2723 ft | 196 kts | 297° |
| 2026-05-01 12:43 | 40.58140 | -73.62139 | 2469 ft | 192 kts | 301° |
| 2026-05-01 12:43 | 40.58804 | -73.63651 | 2200 ft | 191 kts | 302° |
| 2026-05-01 12:44 | 40.59479 | -73.65136 | 1945 ft | 193 kts | 303° |
| 2026-05-01 12:44 | 40.60168 | -73.66656 | 1693 ft | 193 kts | 302° |
| 2026-05-01 12:44 | 40.61538 | -73.69676 | 1156 ft | 189 kts | 303° |
| 2026-05-01 12:45 | 40.62850 | -73.72571 | 677 ft | 178 kts | 302° |
| 2026-05-01 12:45 | 40.63463 | -73.73926 | 418 ft | 167 kts | 301° |
| 2026-05-01 12:45 | 40.64018 | -73.75156 | 223 ft | 148 kts | 301° |
| 2026-05-01 12:46 | 40.64516 | -73.76252 | 47 ft | 134 kts | 301° |
| 2026-05-01 12:46 | 40.64966 | -73.77235 | 30 ft | 110 kts | 301° |
| 2026-05-01 12:46 | 40.65273 | -73.77915 | 26 ft | 47 kts | 300° |
| 2026-05-01 12:46 | 40.65318 | -73.78217 | 30 ft | 18 kts | 268° |
| 2026-05-01 12:47 | 40.65326 | -73.78291 | 30 ft | 1 kts | 287° |
| 2026-05-01 12:47 | 40.65329 | -73.78302 | 30 ft | 0 kts | 287° |
| 2026-05-01 12:47 | 40.65329 | -73.78303 | 30 ft | 0 kts | 287° |
| 2026-05-01 12:48 | 40.65330 | -73.78305 | 30 ft | 0 kts | 287° |
| 2026-05-01 12:48 | 40.65330 | -73.78306 | 30 ft | 0 kts | 287° |
| 2026-05-01 12:49 | 40.65344 | -73.78356 | 29 ft | 16 kts | 291° |
| 2026-05-01 12:50 | 40.65338 | -73.78507 | 28 ft | 17 kts | 247° |
| 2026-05-01 12:50 | 40.65282 | -73.78650 | 33 ft | 18 kts | 240° |
| 2026-05-01 12:50 | 40.65225 | -73.78807 | 28 ft | 20 kts | 249° |
| 2026-05-01 12:50 | 40.65138 | -73.78913 | 28 ft | 18 kts | 185° |
| 2026-05-01 12:51 | 40.65026 | -73.78971 | 28 ft | 18 kts | 231° |
| 2026-05-01 12:51 | 40.64960 | -73.79114 | 28 ft | 18 kts | 239° |
| 2026-05-01 12:51 | 40.64833 | -73.79404 | 28 ft | 18 kts | 241° |
| 2026-05-01 12:52 | 40.64772 | -73.79551 | 28 ft | 18 kts | 241° |
| 2026-05-01 12:52 | 40.64695 | -73.79608 | 28 ft | 6 kts | 155° |
| 2026-05-01 12:52 | 40.64642 | -73.79564 | 28 ft | 19 kts | 146° |
| 2026-05-01 12:53 | 40.64341 | -73.79492 | 29 ft | 23 kts | 182° |
| 2026-05-01 12:53 | 40.64184 | -73.79504 | 29 ft | 23 kts | 185° |
| 2026-05-01 12:53 | 40.64051 | -73.79446 | 27 ft | 20 kts | 126° |
| 2026-05-01 12:54 | 40.63989 | -73.79284 | 26 ft | 20 kts | 89° |
| 2026-05-01 12:54 | 40.64088 | -73.79119 | 29 ft | 0 kts | 48° |
| 2026-05-01 12:54 | 40.64093 | -73.79112 | 28 ft | 2 kts | 48° |
| 2026-05-01 12:55 | 40.64122 | -73.79103 | 30 ft | 3 kts | 342° |
| 2026-05-01 12:55 | 40.64140 | -73.79118 | 30 ft | 3 kts | 325° |
| 2026-05-01 12:55 | 40.64157 | -73.79136 | 29 ft | 4 kts | 310° |
| 2026-05-01 12:56 | 40.64164 | -73.79148 | 29 ft | 0 kts | 309° |